createdAt,value
2023-02-11T00:00:38.295Z,27.24
2023-02-11T00:01:38.270Z,27.23
2023-02-11T00:02:38.262Z,27.22
2023-02-11T00:03:38.309Z,27.23
2023-02-11T00:04:37.268Z,27.24
2023-02-11T00:05:37.256Z,27.23
2023-02-11T00:06:38.242Z,27.23
2023-02-11T00:07:38.251Z,27.25
2023-02-11T00:08:37.239Z,27.21
2023-02-11T00:09:38.229Z,27.22
2023-02-11T00:10:38.224Z,27.21
2023-02-11T00:11:37.265Z,27.23
2023-02-11T00:12:38.215Z,27.26
2023-02-11T00:13:37.200Z,27.25
2023-02-11T00:14:38.189Z,27.25
2023-02-11T00:15:38.194Z,27.26
2023-02-11T00:16:37.250Z,27.24
2023-02-11T00:17:38.168Z,27.25
2023-02-11T00:18:37.164Z,27.25
2023-02-11T00:19:38.148Z,27.25
2023-02-11T00:20:37.147Z,27.24
2023-02-11T00:21:37.155Z,27.24
2023-02-11T00:22:38.228Z,27.26
2023-02-11T00:23:37.135Z,27.23
2023-02-11T00:24:38.131Z,27.25
2023-02-11T00:25:37.114Z,27.24
2023-02-11T00:26:37.132Z,27.26
2023-02-11T00:27:37.206Z,27.26
2023-02-11T00:28:38.218Z,27.26
2023-02-11T00:29:38.261Z,27.24
2023-02-11T00:30:37.408Z,27.24
2023-02-11T00:31:37.521Z,27.23
2023-02-11T00:32:37.384Z,27.24
2023-02-11T00:33:37.430Z,27.24
2023-02-11T00:34:37.468Z,27.27
2023-02-11T00:35:37.517Z,27.24
2023-02-11T00:36:38.576Z,27.26
2023-02-11T00:38:38.659Z,27.24
2023-02-11T00:39:38.699Z,27.26
2023-02-11T00:40:38.755Z,27.26
2023-02-11T00:41:37.805Z,27.25
2023-02-11T00:42:37.857Z,27.26
2023-02-11T00:43:37.929Z,27.25
2023-02-11T00:44:37.952Z,27.27
2023-02-11T00:45:37.990Z,27.28
2023-02-11T00:46:39.154Z,27.25
2023-02-11T00:47:39.108Z,27.27
2023-02-11T00:48:38.157Z,27.27
2023-02-11T00:49:38.194Z,27.28
2023-02-11T00:50:39.268Z,27.30
2023-02-11T00:51:39.322Z,27.28
2023-02-11T00:52:38.331Z,27.29
2023-02-11T00:53:39.385Z,27.29
2023-02-11T00:54:38.434Z,27.28
2023-02-11T00:55:39.498Z,27.27
2023-02-11T00:56:39.546Z,27.29
2023-02-11T00:57:38.595Z,27.27
2023-02-11T00:58:38.631Z,27.28
2023-02-11T00:59:39.714Z,27.27
2023-02-11T01:00:39.737Z,27.29
2023-02-11T01:01:38.886Z,27.29
2023-02-11T01:02:38.828Z,27.27
2023-02-11T01:03:38.876Z,27.27
2023-02-11T01:04:38.928Z,27.29
2023-02-11T01:05:40.015Z,27.31
2023-02-11T01:06:39.038Z,27.30
2023-02-11T01:08:40.123Z,27.28
2023-02-11T01:10:40.236Z,27.30
2023-02-11T01:12:40.333Z,27.31
2023-02-11T01:13:39.376Z,27.30
2023-02-11T01:15:40.586Z,27.29
2023-02-11T01:16:39.548Z,27.32
2023-02-11T01:17:39.594Z,27.30
2023-02-11T01:18:39.660Z,27.31
2023-02-11T01:20:40.776Z,27.31
2023-02-11T01:21:39.842Z,27.30
2023-02-11T01:22:39.873Z,27.30
2023-02-11T01:23:39.946Z,27.28
2023-02-11T01:24:40.981Z,27.30
2023-02-11T01:25:41.045Z,27.30
2023-02-11T01:26:40.122Z,27.28
2023-02-11T01:27:40.174Z,27.30
2023-02-11T01:28:40.307Z,27.30
2023-02-11T01:30:41.345Z,27.30
2023-02-11T01:31:40.439Z,27.31
2023-02-11T01:32:40.431Z,27.30
2023-02-11T01:33:40.496Z,27.30
2023-02-11T01:34:41.541Z,27.31
2023-02-11T01:35:40.582Z,27.30
2023-02-11T01:36:41.646Z,27.31
2023-02-11T01:37:41.684Z,27.32
2023-02-11T01:38:41.746Z,27.31
2023-02-11T01:39:40.820Z,27.30
2023-02-11T01:40:41.861Z,27.33
2023-02-11T01:41:40.926Z,27.29
2023-02-11T01:42:40.967Z,27.32
2023-02-11T01:43:42.031Z,27.32
2023-02-11T01:44:41.101Z,27.30
2023-02-11T01:45:42.143Z,27.32
2023-02-11T01:46:42.288Z,27.32
2023-02-11T01:47:42.296Z,27.31
2023-02-11T01:48:42.349Z,27.33
2023-02-11T01:49:41.389Z,27.33
2023-02-11T01:50:41.453Z,27.31
2023-02-11T01:51:41.499Z,27.33
2023-02-11T01:52:42.590Z,27.32
2023-02-11T01:53:42.623Z,27.34
2023-02-11T01:54:42.679Z,27.32
2023-02-11T01:55:41.744Z,27.33
2023-02-11T01:56:42.825Z,27.32
2023-02-11T01:57:42.853Z,27.31
2023-02-11T01:58:41.944Z,27.33
2023-02-11T01:59:42.976Z,27.33
2023-02-11T02:00:42.025Z,27.32
2023-02-11T02:01:43.137Z,27.32
2023-02-11T02:02:43.153Z,27.33
2023-02-11T02:03:42.300Z,27.31
2023-02-11T02:04:42.281Z,27.33
2023-02-11T02:05:42.330Z,27.31
2023-02-11T02:06:42.397Z,27.34
2023-02-11T02:07:43.532Z,27.32
2023-02-11T02:08:43.489Z,27.33
2023-02-11T02:09:43.549Z,27.33
2023-02-11T02:10:42.634Z,27.33
2023-02-11T02:11:43.688Z,27.34
2023-02-11T02:12:42.741Z,27.35
2023-02-11T02:14:42.885Z,27.31
2023-02-11T02:15:42.942Z,27.33
2023-02-11T02:16:43.067Z,27.32
2023-02-11T02:17:43.027Z,27.34
2023-02-11T02:19:44.134Z,27.34
2023-02-11T02:20:44.201Z,27.33
2023-02-11T02:21:43.283Z,27.33
2023-02-11T02:22:44.328Z,27.34
2023-02-11T02:23:43.361Z,27.33
2023-02-11T02:24:43.414Z,27.34
2023-02-11T02:26:43.558Z,27.34
2023-02-11T02:27:44.601Z,27.34
2023-02-11T02:28:43.660Z,27.33
2023-02-11T02:29:44.707Z,27.33
2023-02-11T02:30:44.830Z,27.35
2023-02-11T02:31:44.961Z,27.34
2023-02-11T02:32:43.893Z,27.34
2023-02-11T02:33:44.953Z,27.30
2023-02-11T02:34:44.050Z,27.35
2023-02-11T02:35:45.083Z,27.34
2023-02-11T02:36:45.165Z,27.33
2023-02-11T02:37:45.204Z,27.31
2023-02-11T02:38:44.257Z,27.36
2023-02-11T02:40:44.379Z,27.33
2023-02-11T02:41:45.447Z,27.33
2023-02-11T02:42:45.511Z,27.35
2023-02-11T02:44:44.617Z,27.33
2023-02-11T02:45:44.683Z,27.34
2023-02-11T02:46:44.793Z,27.33
2023-02-11T02:47:45.802Z,27.34
2023-02-11T02:48:44.881Z,27.33
2023-02-11T02:50:46.000Z,27.33
2023-02-11T02:52:46.095Z,27.34
2023-02-11T02:53:46.167Z,27.34
2023-02-11T02:54:45.221Z,27.34
2023-02-11T02:56:46.382Z,27.34
2023-02-11T02:57:46.407Z,27.35
2023-02-11T02:58:47.296Z,27.34
2023-02-11T03:00:45.627Z,27.33
2023-02-11T03:02:45.693Z,27.33
2023-02-11T03:03:46.813Z,27.34
2023-02-11T03:04:46.816Z,27.36
2023-02-11T03:06:45.954Z,27.35
2023-02-11T03:07:46.072Z,27.35
2023-02-11T03:08:47.043Z,27.36
2023-02-11T03:19:46.644Z,27.35
2023-02-11T03:24:46.935Z,27.40
2023-02-11T03:27:47.100Z,27.34
2023-02-11T03:29:47.207Z,27.34
2023-02-11T05:43:54.643Z,27.38
2023-02-11T05:44:54.659Z,27.37
2023-02-11T05:47:54.774Z,27.40
2023-02-11T05:50:54.953Z,27.36
2023-02-11T05:51:55.003Z,27.37
2023-02-11T05:52:55.077Z,27.37
2023-02-11T05:58:55.358Z,27.40
2023-02-11T06:00:55.415Z,27.40
2023-02-11T06:02:55.601Z,27.39
2023-02-11T06:04:55.556Z,27.40
2023-02-11T06:05:55.620Z,27.39
2023-02-11T06:06:55.671Z,27.40
2023-02-11T06:07:54.724Z,27.39
2023-02-11T06:08:55.754Z,27.38
2023-02-11T06:09:54.814Z,27.39
2023-02-11T06:10:54.865Z,27.38
2023-02-11T06:11:55.943Z,27.36
2023-02-11T06:12:55.991Z,27.37
2023-02-11T06:13:55.059Z,27.38
2023-02-11T06:14:56.114Z,27.39
2023-02-11T06:15:55.264Z,27.37
2023-02-11T06:16:56.240Z,27.39
2023-02-11T06:17:56.322Z,27.38
2023-02-11T06:18:55.356Z,27.38
2023-02-11T06:19:56.339Z,27.39
2023-02-11T06:20:55.362Z,27.39
2023-02-11T06:21:56.404Z,27.38
2023-02-11T06:22:56.454Z,27.40
2023-02-11T06:23:55.481Z,27.40
2023-02-11T06:25:01.566Z,27.39
2023-02-11T06:25:56.516Z,27.41
2023-02-11T06:26:55.506Z,27.40
2023-02-11T06:27:56.586Z,27.38
2023-02-11T06:28:56.489Z,27.39
2023-02-11T06:29:55.491Z,27.40
2023-02-11T06:30:56.553Z,27.39
2023-02-11T06:31:56.741Z,27.39
2023-02-11T06:32:56.524Z,27.39
2023-02-11T06:33:56.458Z,27.38
2023-02-11T06:34:56.474Z,27.38
2023-02-11T06:35:56.432Z,27.39
2023-02-11T06:36:55.446Z,27.38
2023-02-11T06:37:55.425Z,27.37
2023-02-11T06:38:56.411Z,27.38
2023-02-11T06:39:56.417Z,27.38
2023-02-11T06:40:55.402Z,27.38
2023-02-11T06:41:56.393Z,27.40
2023-02-11T06:42:56.413Z,27.39
2023-02-11T06:43:55.393Z,27.40
2023-02-11T06:44:55.385Z,27.40
2023-02-11T06:45:55.383Z,27.40
2023-02-11T06:46:55.461Z,27.41
2023-02-11T06:47:56.356Z,27.39
2023-02-11T06:48:55.365Z,27.40
2023-02-11T06:49:56.359Z,27.39
2023-02-11T06:50:56.372Z,27.39
2023-02-11T06:51:55.386Z,27.39
2023-02-11T06:52:56.434Z,27.38
2023-02-11T06:53:56.463Z,27.40
2023-02-11T06:54:56.558Z,27.41
2023-02-11T06:55:55.521Z,27.39
2023-02-11T06:56:56.589Z,27.37
2023-02-11T06:57:55.618Z,27.42
2023-02-11T06:58:56.655Z,27.41
2023-02-11T06:59:56.721Z,27.37
2023-02-11T07:00:55.773Z,27.41
2023-02-11T07:01:56.877Z,27.39
2023-02-11T07:02:56.932Z,27.41
2023-02-11T07:03:56.941Z,27.41
2023-02-11T07:04:55.947Z,27.40
2023-02-11T07:05:56.986Z,27.43
2023-02-11T07:06:57.053Z,27.41
2023-02-11T07:07:56.072Z,27.40
2023-02-11T07:08:56.108Z,27.40
2023-02-11T07:09:56.151Z,27.41
2023-02-11T07:10:57.212Z,27.39
2023-02-11T07:11:57.236Z,27.42
2023-02-11T07:14:57.376Z,27.42
2023-02-11T07:16:56.488Z,27.41
2023-02-11T07:17:56.516Z,27.42
2023-02-11T07:18:57.549Z,27.39
2023-02-11T07:19:56.594Z,27.40
2023-02-11T07:20:57.627Z,27.39
2023-02-11T07:21:56.666Z,27.39
2023-02-11T07:22:57.719Z,27.39
2023-02-11T07:23:57.743Z,27.37
2023-02-11T07:24:56.774Z,27.38
2023-02-11T07:25:57.826Z,27.38
2023-02-11T07:26:57.880Z,27.37
2023-02-11T07:32:58.132Z,27.37
